createdAt,value
2022-11-08T00:02:55.402Z,13.60
2022-11-08T00:06:56.397Z,13.70
2022-11-08T00:10:56.741Z,13.80
2022-11-08T00:14:38.452Z,13.70
2022-11-08T00:18:20.329Z,13.80
2022-11-08T00:22:02.262Z,13.70
2022-11-08T00:25:43.965Z,13.70
2022-11-08T00:29:25.735Z,13.70
2022-11-08T00:33:07.417Z,13.70
2022-11-08T00:36:49.134Z,13.60
2022-11-08T00:40:30.844Z,13.50
2022-11-08T00:44:12.782Z,13.40
2022-11-08T00:47:54.509Z,13.40
2022-11-08T00:51:37.173Z,13.30
2022-11-08T00:55:18.932Z,13.20
2022-11-08T00:59:01.042Z,13.10
2022-11-08T01:02:42.812Z,13.00
2022-11-08T01:06:25.880Z,13.00
2022-11-08T01:10:08.236Z,12.90
2022-11-08T01:13:51.372Z,12.90
2022-11-08T01:17:33.528Z,12.90
2022-11-08T01:21:15.581Z,12.80
2022-11-08T01:24:57.276Z,12.80
2022-11-08T01:28:39.588Z,12.60
2022-11-08T01:32:21.321Z,12.60
2022-11-08T01:36:05.317Z,12.50
2022-11-08T01:39:47.001Z,12.50
2022-11-08T01:43:31.433Z,12.40
2022-11-08T01:47:13.107Z,12.40
2022-11-08T01:50:58.378Z,12.40
2022-11-08T01:55:03.420Z,12.40
2022-11-08T01:58:48.478Z,12.40
2022-11-08T02:02:30.251Z,12.40
2022-11-08T02:06:13.193Z,12.40
2022-11-08T02:09:56.181Z,12.40
2022-11-08T02:13:38.989Z,12.40
2022-11-08T02:17:20.875Z,12.40
2022-11-08T02:21:17.778Z,12.40
2022-11-08T02:25:00.270Z,12.40
2022-11-08T02:28:43.872Z,12.40
2022-11-08T02:32:25.709Z,12.40
2022-11-08T02:36:08.865Z,12.40
2022-11-08T02:39:50.658Z,12.40
2022-11-08T02:43:32.489Z,12.40
2022-11-08T02:47:14.604Z,12.40
2022-11-08T02:50:56.392Z,12.40
2022-11-08T02:54:38.240Z,12.40
2022-11-08T02:58:20.393Z,12.40
2022-11-08T03:02:02.490Z,12.40
2022-11-08T03:05:44.473Z,12.50
2022-11-08T03:09:27.370Z,12.50
2022-11-08T03:13:09.170Z,12.50
2022-11-08T03:16:50.865Z,12.50
2022-11-08T03:20:33.491Z,12.60
2022-11-08T03:24:15.335Z,12.60
2022-11-08T03:28:05.097Z,12.60
2022-11-08T03:31:46.903Z,12.60
2022-11-08T03:35:28.998Z,12.60
2022-11-08T03:39:11.549Z,12.60
2022-11-08T03:42:55.435Z,12.60
2022-11-08T03:46:37.111Z,12.50
2022-11-08T03:50:18.870Z,12.50
2022-11-08T03:54:00.537Z,12.40
2022-11-08T03:57:43.429Z,12.40
2022-11-08T04:01:25.235Z,12.30
2022-11-08T04:05:09.101Z,12.20
2022-11-08T04:08:50.909Z,12.10
2022-11-08T04:12:51.745Z,12.00
2022-11-08T04:16:34.077Z,12.00
2022-11-08T04:20:34.637Z,11.90
2022-11-08T04:24:16.427Z,11.80
2022-11-08T04:27:58.518Z,11.80
2022-11-08T04:31:40.467Z,11.80
2022-11-08T04:35:22.365Z,11.80
2022-11-08T04:39:04.133Z,11.80
2022-11-08T04:42:45.843Z,11.70
2022-11-08T04:46:29.175Z,11.70
2022-11-08T04:50:10.861Z,11.70
2022-11-08T04:53:53.978Z,11.60
2022-11-08T04:57:36.029Z,11.60
2022-11-08T05:01:20.707Z,11.60
2022-11-08T05:05:02.499Z,11.50
2022-11-08T05:08:44.223Z,11.50
2022-11-08T05:12:25.937Z,11.50
2022-11-08T05:16:14.224Z,11.50
2022-11-08T05:20:14.776Z,11.40
2022-11-08T05:23:57.059Z,11.40
2022-11-08T05:27:38.752Z,11.40
2022-11-08T05:31:20.517Z,11.40
2022-11-08T05:35:02.218Z,11.40
2022-11-08T05:38:44.168Z,11.40
2022-11-08T05:42:25.885Z,11.30
2022-11-08T05:46:07.873Z,11.30
2022-11-08T05:49:49.944Z,11.30
2022-11-08T05:53:32.349Z,11.30
2022-11-08T05:57:14.046Z,11.30
2022-11-08T06:01:10.661Z,11.30
2022-11-08T06:04:52.378Z,11.30
2022-11-08T06:08:34.770Z,11.40
2022-11-08T06:12:16.528Z,11.40
2022-11-08T06:16:03.224Z,11.40
2022-11-08T06:19:45.000Z,11.40
2022-11-08T06:23:27.208Z,11.50
2022-11-08T06:27:08.998Z,11.40
2022-11-08T06:30:51.412Z,11.50
2022-11-08T06:34:33.137Z,11.50
2022-11-08T06:38:14.832Z,11.60
2022-11-08T06:41:56.536Z,11.70
2022-11-08T06:45:38.817Z,11.70
2022-11-08T06:49:20.558Z,11.80
2022-11-08T06:53:05.234Z,11.80
2022-11-08T06:56:47.305Z,11.80
2022-11-08T07:00:29.344Z,11.90
2022-11-08T07:04:11.039Z,11.90
2022-11-08T07:07:52.997Z,11.90
2022-11-08T07:11:34.763Z,12.00
2022-11-08T07:15:17.174Z,12.00
2022-11-08T07:18:58.884Z,12.10
2022-11-08T07:22:40.577Z,12.10
2022-11-08T07:26:22.352Z,12.10
2022-11-08T07:30:04.448Z,12.20
2022-11-08T07:33:46.142Z,12.20
2022-11-08T07:37:27.873Z,12.20
2022-11-08T07:41:10.008Z,12.10
2022-11-08T07:44:51.775Z,12.10
2022-11-08T07:48:33.500Z,12.10
2022-11-08T07:52:15.297Z,12.10
2022-11-08T07:55:58.288Z,12.10
2022-11-08T07:59:40.249Z,12.10
2022-11-08T08:03:23.018Z,12.20
2022-11-08T08:07:05.828Z,12.30
2022-11-08T08:10:47.985Z,12.30
2022-11-08T08:14:29.791Z,12.30
2022-11-08T08:18:11.547Z,12.40
2022-11-08T08:21:53.265Z,12.40
2022-11-08T08:25:35.066Z,12.50
2022-11-08T08:29:16.809Z,12.50
2022-11-08T08:37:15.413Z,12.80
2022-11-08T08:40:57.686Z,12.80
2022-11-08T08:44:39.384Z,12.90
2022-11-08T08:48:21.611Z,12.90
2022-11-08T08:52:03.421Z,12.90
2022-11-08T08:55:45.201Z,12.80
2022-11-08T09:03:30.399Z,12.80
2022-11-08T09:07:12.206Z,12.90
2022-11-08T09:10:59.082Z,13.00
2022-11-08T09:14:40.922Z,13.20
2022-11-08T09:18:23.253Z,13.30
2022-11-08T09:22:05.161Z,13.40
2022-11-08T09:25:46.942Z,13.50
2022-11-08T09:29:28.629Z,13.50
2022-11-08T09:33:10.432Z,13.50
2022-11-08T09:36:52.449Z,13.60
2022-11-08T09:40:48.935Z,13.70
2022-11-08T09:44:50.854Z,13.90
2022-11-08T09:48:36.102Z,13.90
2022-11-08T09:52:24.799Z,13.90
2022-11-08T09:56:28.053Z,13.90
2022-11-08T10:00:13.604Z,13.90
2022-11-08T10:03:58.343Z,13.90
2022-11-08T10:07:45.659Z,14.00
2022-11-08T10:11:36.520Z,14.00
2022-11-08T10:15:43.987Z,14.10
2022-11-08T10:19:47.002Z,14.20
2022-11-08T10:23:28.813Z,14.20
2022-11-08T10:27:19.830Z,14.20
2022-11-08T10:31:02.561Z,14.20
2022-11-08T10:34:52.168Z,14.10
2022-11-08T10:39:08.998Z,14.10
2022-11-08T10:42:58.008Z,13.90
2022-11-08T10:46:47.101Z,13.80
2022-11-08T10:50:46.167Z,13.70
2022-11-08T10:54:50.853Z,13.60
2022-11-08T10:58:43.808Z,13.40
2022-11-08T11:02:29.821Z,13.30
2022-11-08T11:06:24.092Z,13.20
2022-11-08T11:10:25.654Z,13.10
2022-11-08T11:14:33.854Z,13.00
2022-11-08T11:18:24.736Z,13.00
2022-11-08T11:22:08.604Z,13.00
2022-11-08T11:25:51.955Z,12.90
2022-11-08T11:29:35.296Z,12.80
2022-11-08T11:33:26.319Z,12.70
2022-11-08T11:37:11.081Z,12.50
2022-11-08T11:40:56.318Z,12.30
2022-11-08T11:44:45.666Z,12.20
2022-11-08T11:48:36.239Z,12.10
2022-11-08T11:52:19.187Z,12.10
2022-11-08T11:56:17.753Z,12.00
2022-11-08T12:00:23.128Z,11.90
2022-11-08T12:04:13.145Z,11.90
2022-11-08T12:08:21.561Z,11.90
2022-11-08T12:12:21.934Z,11.90
2022-11-08T12:16:11.616Z,11.90
2022-11-08T12:20:08.462Z,11.80
2022-11-08T12:24:27.637Z,11.90
2022-11-08T12:28:47.208Z,11.90
2022-11-08T12:32:58.962Z,11.90
2022-11-08T12:36:57.942Z,11.90
2022-11-08T12:40:53.673Z,12.00
2022-11-08T12:44:59.778Z,12.20
2022-11-08T12:49:12.014Z,12.30
2022-11-08T12:52:53.690Z,12.30
2022-11-08T12:56:41.741Z,12.40
2022-11-08T13:00:23.593Z,12.30
2022-11-08T13:04:36.838Z,12.40
2022-11-08T13:08:35.596Z,12.40
2022-11-08T13:12:35.726Z,12.50
2022-11-08T13:16:26.015Z,12.60
2022-11-08T13:20:46.427Z,12.60
2022-11-08T13:24:48.828Z,12.50
2022-11-08T13:28:35.564Z,12.30
2022-11-08T13:32:55.725Z,12.30
2022-11-08T13:37:04.726Z,12.30
2022-11-08T13:41:24.888Z,12.30
2022-11-08T13:45:34.098Z,12.40
2022-11-08T13:49:18.418Z,12.60
2022-11-08T13:53:18.796Z,12.90
2022-11-08T13:57:01.717Z,13.40
2022-11-08T14:00:46.152Z,13.80
2022-11-08T14:04:33.531Z,14.00
2022-11-08T14:08:18.014Z,14.30
2022-11-08T14:12:25.268Z,14.40
2022-11-08T14:16:15.485Z,14.30
2022-11-08T14:20:16.580Z,14.10
2022-11-08T14:23:58.365Z,13.90
2022-11-08T14:27:41.187Z,13.60
2022-11-08T14:31:33.089Z,13.50
2022-11-08T14:35:22.272Z,13.40
2022-11-08T14:39:05.576Z,13.30
2022-11-08T14:42:48.173Z,13.10
2022-11-08T14:46:33.091Z,12.90
2022-11-08T14:50:20.702Z,12.90
2022-11-08T14:54:02.438Z,12.80
2022-11-08T14:57:46.474Z,12.70
2022-11-08T15:01:29.510Z,12.60
2022-11-08T15:05:36.460Z,12.60
2022-11-08T15:09:20.593Z,12.50
2022-11-08T15:13:02.354Z,12.60
2022-11-08T15:16:47.611Z,12.70
2022-11-08T15:20:29.409Z,12.60
2022-11-08T15:24:13.826Z,12.70
2022-11-08T15:28:13.775Z,12.70
2022-11-08T15:32:01.728Z,12.60
2022-11-08T15:35:47.265Z,12.60
2022-11-08T15:39:36.850Z,12.60
2022-11-08T15:43:30.747Z,12.50
2022-11-08T15:47:39.313Z,12.50
2022-11-08T15:51:21.586Z,12.50
2022-11-08T15:55:03.314Z,12.40
2022-11-08T15:58:45.097Z,12.50
2022-11-08T16:02:26.958Z,12.40
2022-11-08T16:06:12.229Z,12.40
2022-11-08T16:09:53.961Z,12.40
2022-11-08T16:13:39.163Z,12.40
2022-11-08T16:17:20.981Z,12.40
2022-11-08T16:21:02.723Z,12.40
2022-11-08T16:24:44.493Z,12.40
2022-11-08T16:28:36.324Z,12.40
2022-11-08T16:32:18.118Z,12.50
2022-11-08T16:36:02.365Z,12.50
2022-11-08T16:39:44.104Z,12.50
2022-11-08T16:43:25.841Z,12.50
2022-11-08T16:47:17.848Z,12.40
2022-11-08T16:51:02.143Z,12.40
2022-11-08T16:54:43.881Z,12.40
2022-11-08T16:58:26.813Z,12.30
2022-11-08T17:02:35.756Z,12.30
2022-11-08T17:06:18.271Z,12.30
2022-11-08T17:10:00.184Z,12.30
2022-11-08T17:13:41.963Z,12.30
2022-11-08T17:17:23.822Z,12.30
2022-11-08T17:21:29.953Z,12.30
2022-11-08T17:25:11.561Z,12.30
2022-11-08T17:28:56.344Z,12.30
2022-11-08T17:32:38.482Z,12.30
2022-11-08T17:36:20.376Z,12.40
2022-11-08T17:40:03.149Z,12.30
2022-11-08T17:43:44.973Z,12.40
2022-11-08T17:47:27.813Z,12.30
2022-11-08T17:51:11.791Z,12.40
2022-11-08T17:54:53.518Z,12.30
2022-11-08T17:58:37.884Z,12.30
2022-11-08T18:02:19.702Z,12.20
2022-11-08T18:06:07.649Z,12.20
2022-11-08T18:09:49.752Z,12.20
2022-11-08T18:13:32.305Z,12.10
2022-11-08T18:17:14.031Z,12.10
2022-11-08T18:20:55.953Z,12.10
2022-11-08T18:24:38.788Z,12.10
2022-11-08T18:28:20.521Z,12.20
2022-11-08T18:32:02.469Z,12.20
2022-11-08T18:35:44.349Z,12.20
2022-11-08T18:39:26.120Z,12.30
2022-11-08T18:43:07.817Z,12.30
2022-11-08T18:46:49.665Z,12.30
2022-11-08T18:50:32.626Z,12.30
2022-11-08T18:54:14.409Z,12.40
2022-11-08T18:57:56.162Z,12.30
2022-11-08T19:01:37.910Z,12.40
2022-11-08T19:05:19.668Z,12.40
2022-11-08T19:09:01.378Z,12.40
2022-11-08T19:12:43.257Z,12.40
2022-11-08T19:16:25.087Z,12.30
2022-11-08T19:20:07.412Z,12.30
2022-11-08T19:23:50.163Z,12.30
2022-11-08T19:27:31.856Z,12.30
2022-11-08T19:31:15.686Z,12.30
2022-11-08T19:34:57.413Z,12.20
2022-11-08T19:38:40.060Z,12.10
2022-11-08T19:42:21.852Z,12.10
2022-11-08T19:46:05.424Z,12.00
2022-11-08T19:49:47.153Z,12.10
2022-11-08T19:53:29.437Z,12.00
2022-11-08T19:57:11.641Z,12.00
2022-11-08T20:00:53.362Z,12.00
2022-11-08T20:04:35.130Z,11.90
2022-11-08T20:08:17.504Z,11.90
2022-11-08T20:11:59.595Z,11.90
2022-11-08T20:15:41.362Z,11.90
2022-11-08T20:19:23.100Z,11.90
2022-11-08T20:23:04.817Z,11.80
2022-11-08T20:26:47.172Z,11.90
2022-11-08T20:30:29.147Z,11.80
2022-11-08T20:34:12.899Z,11.80
2022-11-08T20:37:57.935Z,11.80
2022-11-08T20:41:41.070Z,11.80
2022-11-08T20:45:22.831Z,11.80
2022-11-08T20:49:05.406Z,11.80
2022-11-08T20:52:47.177Z,11.80
2022-11-08T20:56:29.309Z,11.80
2022-11-08T21:00:13.766Z,11.70
2022-11-08T21:03:56.046Z,11.70
2022-11-08T21:08:01.877Z,11.70
2022-11-08T21:11:39.603Z,11.70
2022-11-08T21:15:26.791Z,11.70
2022-11-08T21:19:08.898Z,11.80
2022-11-08T21:22:50.661Z,11.70
2022-11-08T21:26:36.227Z,11.70
2022-11-08T21:30:18.314Z,11.60
2022-11-08T21:34:00.496Z,11.60
2022-11-08T21:37:42.300Z,11.60
2022-11-08T21:41:24.095Z,11.60
2022-11-08T21:45:06.829Z,11.60
2022-11-08T21:48:56.588Z,11.50
2022-11-08T21:52:38.298Z,11.50
2022-11-08T21:56:20.138Z,11.50
2022-11-08T22:00:02.487Z,11.50
2022-11-08T22:03:44.419Z,11.40
2022-11-08T22:07:26.183Z,11.50
2022-11-08T22:11:07.947Z,11.40
2022-11-08T22:14:51.394Z,11.40
2022-11-08T22:22:34.817Z,11.40
2022-11-08T22:26:16.499Z,11.40
2022-11-08T22:29:58.274Z,11.40
2022-11-08T22:33:40.049Z,11.40
2022-11-08T22:37:21.875Z,11.40
2022-11-08T22:41:03.711Z,11.40
2022-11-08T22:44:45.525Z,11.40
2022-11-08T22:48:27.614Z,11.30
2022-11-08T22:52:09.342Z,11.30
2022-11-08T22:55:51.101Z,11.30
2022-11-08T22:59:32.796Z,11.30
2022-11-08T23:03:14.556Z,11.30
2022-11-08T23:06:56.384Z,11.20
2022-11-08T23:10:58.119Z,11.20
2022-11-08T23:14:58.365Z,11.20
2022-11-08T23:19:00.072Z,11.20
2022-11-08T23:23:00.232Z,11.20
2022-11-08T23:27:00.895Z,11.20
2022-11-08T23:31:01.300Z,11.10
2022-11-08T23:34:43.038Z,11.10
2022-11-08T23:38:24.747Z,11.10
2022-11-08T23:42:25.326Z,11.10
2022-11-08T23:46:12.085Z,11.10
2022-11-08T23:49:53.815Z,11.10
2022-11-08T23:53:39.954Z,11.10
2022-11-08T23:57:21.817Z,11.10
